Time;durP1;ratioP1;P1;durP2;ratioP2;P2;SDS_P1;SDS_P2;PMS_P1;PMS_P2;Temp;Humidity;BMP_temperature;BMP_pressure;BME280_temperature;BME280_humidity;BME280_pressure;Samples;Min_cycle;Max_cycle;Signal;HPM_P1;HPM_P2
2023/07/19 00:00:53;;;;;;;8.80;3.38;;;;;;;16.29;100.00;100986.00;5007698;28;20076;-71
2023/07/19 00:03:21;;;;;;;10.85;3.90;;;;;;;16.21;100.00;100985.44;4999197;28;20473;-73
2023/07/19 00:05:48;;;;;;;11.68;3.75;;;;;;;16.16;100.00;100985.19;5005066;28;20073;-72
2023/07/19 00:08:15;;;;;;;10.20;3.40;;;;;;;16.11;100.00;100972.53;4988608;28;20101;-71
2023/07/19 00:10:41;;;;;;;10.10;3.97;;;;;;;16.07;100.00;100973.88;5002000;28;20132;-73
2023/07/19 00:13:08;;;;;;;8.32;3.55;;;;;;;16.03;100.00;100976.78;4998517;28;20050;-73
2023/07/19 00:15:34;;;;;;;11.23;4.25;;;;;;;16.01;100.00;100979.25;5006861;28;20077;-72
2023/07/19 00:18:01;;;;;;;11.32;3.70;;;;;;;15.97;100.00;100970.16;5004059;28;20510;-71
2023/07/19 00:20:27;;;;;;;8.55;4.15;;;;;;;15.91;100.00;100959.94;5006008;28;20053;-71
2023/07/19 00:22:54;;;;;;;8.90;2.88;;;;;;;15.95;100.00;100966.22;4990669;28;20050;-72
2023/07/19 00:25:26;;;;;;;10.13;3.70;;;;;;;15.93;100.00;100968.72;4985380;28;20054;-72
2023/07/19 00:27:54;;;;;;;10.35;3.83;;;;;;;15.86;100.00;100966.13;5001202;28;20442;-70
2023/07/19 00:30:20;;;;;;;11.55;3.75;;;;;;;15.82;100.00;100962.63;4998165;28;20061;-71
2023/07/19 00:32:47;;;;;;;10.95;4.97;;;;;;;15.75;100.00;100954.44;5007830;28;20053;-73
2023/07/19 00:35:14;;;;;;;9.43;3.63;;;;;;;15.72;100.00;100956.13;4988230;28;20046;-74
2023/07/19 00:37:43;;;;;;;9.38;3.70;;;;;;;15.69;100.00;100951.41;4997451;28;20078;-73
2023/07/19 00:40:10;;;;;;;10.07;3.55;;;;;;;15.64;100.00;100954.78;4993780;28;20602;-72
2023/07/19 00:42:37;;;;;;;9.52;3.38;;;;;;;15.60;100.00;100951.31;5008549;28;20390;-72
2023/07/19 00:48:44;;;;;;;14.63;3.53;;;;;;;15.58;100.00;100950.16;4998790;28;20421;-72
2023/07/19 00:51:11;;;;;;;9.77;3.63;;;;;;;15.49;100.00;100944.44;5007412;28;20526;-73
2023/07/19 00:53:39;;;;;;;12.32;3.95;;;;;;;15.46;100.00;100945.34;4986134;28;20501;-73
2023/07/19 00:56:10;;;;;;;8.75;3.30;;;;;;;15.49;100.00;100942.41;5002826;28;20049;-73
2023/07/19 00:58:38;;;;;;;8.50;3.65;;;;;;;15.44;100.00;100942.97;4997747;28;22095;-73
2023/07/19 01:01:05;;;;;;;10.75;3.50;;;;;;;15.39;100.00;100943.50;5007545;28;20076;-72
2023/07/19 01:03:33;;;;;;;8.57;3.85;;;;;;;15.34;100.00;100941.25;5005183;28;20057;-72
2023/07/19 01:06:01;;;;;;;12.25;4.10;;;;;;;15.36;100.00;100940.84;5001038;28;20046;-72
2023/07/19 01:08:27;;;;;;;9.38;4.05;;;;;;;15.34;100.00;100940.44;5001511;28;20058;-72
2023/07/19 01:10:54;;;;;;;13.35;3.78;;;;;;;15.27;100.00;100935.84;5008036;28;20038;-72
2023/07/19 01:13:21;;;;;;;12.68;4.13;;;;;;;15.24;100.00;100933.13;4994797;28;20050;-71
2023/07/19 01:15:48;;;;;;;11.88;4.10;;;;;;;15.25;100.00;100937.53;5007832;28;20054;-71
2023/07/19 01:18:15;;;;;;;9.13;3.45;;;;;;;15.20;100.00;100936.06;5003799;28;20455;-72
2023/07/19 01:20:42;;;;;;;10.98;4.22;;;;;;;15.20;100.00;100935.25;4987036;28;20069;-72
2023/07/19 01:23:09;;;;;;;12.40;4.50;;;;;;;15.16;100.00;100934.59;5001590;28;20061;-72
2023/07/19 01:25:36;;;;;;;12.40;3.70;;;;;;;15.13;100.00;100930.66;5007567;28;20045;-73
2023/07/19 01:28:03;;;;;;;13.13;4.35;;;;;;;15.11;100.00;100929.50;5005804;28;20048;-72
2023/07/19 01:30:31;;;;;;;9.70;3.83;;;;;;;15.10;100.00;100930.75;5007508;28;20433;-74
2023/07/19 01:32:57;;;;;;;9.25;3.78;;;;;;;15.06;100.00;100925.25;5002423;28;20145;-72
2023/07/19 01:35:24;;;;;;;11.90;4.35;;;;;;;15.06;100.00;100919.66;4996331;28;20081;-72
2023/07/19 01:37:50;;;;;;;8.63;3.35;;;;;;;15.04;100.00;100913.72;5004380;28;20053;-72
2023/07/19 01:40:17;;;;;;;11.70;3.72;;;;;;;15.08;100.00;100917.19;5000599;28;20572;-72
2023/07/19 01:42:43;;;;;;;11.38;3.72;;;;;;;15.07;100.00;100910.03;5005478;28;20054;-73
2023/07/19 01:45:10;;;;;;;11.75;3.53;;;;;;;15.05;100.00;100906.88;5004741;28;20464;-76
2023/07/19 01:47:36;;;;;;;10.63;4.20;;;;;;;15.01;100.00;100906.19;5008395;28;20050;-75
2023/07/19 01:50:03;;;;;;;8.85;3.80;;;;;;;14.98;100.00;100907.88;5003163;28;20052;-73
2023/07/19 01:52:30;;;;;;;9.20;4.10;;;;;;;14.97;100.00;100908.31;5000768;28;20054;-72
2023/07/19 01:54:57;;;;;;;11.18;4.40;;;;;;;14.95;100.00;100908.75;5007779;28;20054;-71
2023/07/19 01:57:24;;;;;;;9.57;4.10;;;;;;;14.92;100.00;100906.03;5008395;28;20063;-72
2023/07/19 01:59:51;;;;;;;10.15;4.18;;;;;;;14.88;100.00;100903.34;5005127;28;20050;-72
2023/07/19 02:02:17;;;;;;;13.30;4.72;;;;;;;14.83;100.00;100894.72;4990693;28;20509;-72
2023/07/19 02:04:44;;;;;;;10.95;3.92;;;;;;;14.77;100.00;100896.47;4991068;28;20052;-70
2023/07/19 02:07:11;;;;;;;9.98;4.20;;;;;;;14.73;100.00;100893.00;4989361;28;20096;-73
2023/07/19 02:09:39;;;;;;;13.60;4.45;;;;;;;14.71;100.00;100893.44;5004576;28;20057;-70
2023/07/19 02:12:06;;;;;;;11.55;4.18;;;;;;;14.70;100.00;100899.47;4990434;28;20057;-72
2023/07/19 02:14:33;;;;;;;6.85;3.55;;;;;;;14.68;100.00;100897.13;4999998;28;20046;-73
2023/07/19 02:17:00;;;;;;;11.73;4.50;;;;;;;14.65;100.00;100900.03;5007392;28;20041;-70
2023/07/19 02:19:26;;;;;;;10.30;3.92;;;;;;;14.64;100.00;100892.84;4990082;28;20104;-71
2023/07/19 02:21:53;;;;;;;14.02;4.75;;;;;;;14.64;100.00;100887.25;4990842;28;20099;-71
2023/07/19 02:24:20;;;;;;;10.90;4.22;;;;;;;14.64;100.00;100892.84;5006469;28;20046;-72
2023/07/19 02:26:46;;;;;;;18.52;5.45;;;;;;;14.63;100.00;100896.88;5007987;28;20053;-71
2023/07/19 02:29:13;;;;;;;14.45;4.43;;;;;;;14.62;100.00;100896.06;5006274;28;20050;-71
2023/07/19 02:31:39;;;;;;;9.82;3.95;;;;;;;14.61;100.00;100886.13;5008106;28;20054;-71
2023/07/19 02:34:09;;;;;;;15.38;4.75;;;;;;;14.58;100.00;100891.78;5001367;28;20533;-72
2023/07/19 02:36:37;;;;;;;11.68;4.32;;;;;;;14.55;100.00;100895.50;5005856;28;20498;-73
2023/07/19 02:39:04;;;;;;;12.50;4.32;;;;;;;14.53;100.00;100895.16;5007439;28;20049;-72
2023/07/19 02:41:31;;;;;;;11.02;4.55;;;;;;;14.50;100.00;100901.63;5004543;28;20145;-71
2023/07/19 02:43:59;;;;;;;9.90;4.25;;;;;;;14.51;100.00;100890.00;5004345;28;20461;-73
2023/07/19 02:46:26;;;;;;;10.70;4.43;;;;;;;14.54;100.00;100894.72;5007842;28;20053;-71
2023/07/19 02:48:52;;;;;;;11.90;4.28;;;;;;;14.56;100.00;100888.66;4997241;28;20133;-73
2023/07/19 02:51:19;;;;;;;10.75;4.25;;;;;;;14.59;100.00;100899.00;4991253;28;20049;-72
2023/07/19 02:53:46;;;;;;;11.95;4.15;;;;;;;14.60;100.00;100920.13;4987082;28;20128;-71
2023/07/19 02:56:13;;;;;;;11.93;4.40;;;;;;;14.38;100.00;100911.47;5011104;28;20046;-73
2023/07/19 02:58:39;;;;;;;10.43;4.28;;;;;;;14.20;100.00;100913.16;5010107;28;20045;-72
2023/07/19 03:01:06;;;;;;;12.73;4.53;;;;;;;14.21;100.00;100914.75;5011538;28;20076;-72
2023/07/19 03:03:33;;;;;;;11.70;4.55;;;;;;;14.29;100.00;100907.72;5010237;28;20046;-72
2023/07/19 03:06:02;;;;;;;9.70;4.63;;;;;;;14.30;100.00;100907.31;5009238;28;20518;-73
2023/07/19 03:08:28;;;;;;;15.27;6.20;;;;;;;14.35;100.00;100906.00;5011036;28;20089;-73
2023/07/19 03:10:55;;;;;;;12.55;4.30;;;;;;;14.39;100.00;100903.88;5010954;28;20041;-73
2023/07/19 03:13:22;;;;;;;12.90;4.90;;;;;;;14.40;100.00;100913.84;5005037;28;20610;-72
2023/07/19 03:15:48;;;;;;;12.68;5.10;;;;;;;14.33;100.00;100914.03;5011199;28;20517;-73
2023/07/19 03:18:15;;;;;;;13.50;5.25;;;;;;;14.33;100.00;100917.63;4990176;28;20555;-72
2023/07/19 03:20:41;;;;;;;10.40;4.63;;;;;;;14.33;100.00;100912.03;5001645;28;20472;-73
2023/07/19 03:23:08;;;;;;;10.95;4.63;;;;;;;14.40;100.00;100916.63;4993844;28;20460;-72
2023/07/19 03:25:35;;;;;;;19.50;4.70;;;;;;;14.41;100.00;100915.41;5009658;28;20128;-72
2023/07/19 03:28:01;;;;;;;11.23;4.72;;;;;;;14.39;100.00;100915.84;5008264;28;20050;-72
2023/07/19 03:30:28;;;;;;;9.02;4.22;;;;;;;14.44;100.00;100917.34;5009171;28;20120;-72
2023/07/19 03:32:55;;;;;;;12.50;4.50;;;;;;;14.45;100.00;100913.34;5010758;28;20046;-71
2023/07/19 03:35:22;;;;;;;13.27;4.63;;;;;;;14.46;100.00;100917.72;5010644;28;20111;-73
2023/07/19 03:37:48;;;;;;;13.40;4.40;;;;;;;14.47;100.00;100922.06;5008131;28;20054;-72
2023/07/19 03:40:15;;;;;;;10.88;4.53;;;;;;;14.45;100.00;100914.13;5007347;28;20047;-71
2023/07/19 03:42:42;;;;;;;10.65;4.32;;;;;;;14.48;100.00;100918.84;5010936;28;20630;-73
2023/07/19 03:45:09;;;;;;;10.85;4.25;;;;;;;14.45;100.00;100918.94;5002067;28;20101;-72
2023/07/19 03:47:35;;;;;;;12.25;4.35;;;;;;;14.46;100.00;100924.09;4992267;28;20081;-72
2023/07/19 03:50:04;;;;;;;11.00;4.05;;;;;;;14.47;100.00;100924.88;4993502;28;20050;-73
2023/07/19 03:52:31;;;;;;;14.75;4.85;;;;;;;14.45;100.00;100922.50;4993182;28;20057;-71
2023/07/19 03:54:57;;;;;;;14.48;5.82;;;;;;;14.48;100.00;100929.22;5010176;28;20097;-72
2023/07/19 03:57:24;;;;;;;10.15;4.30;;;;;;;14.49;100.00;100934.38;5000123;28;20069;-71
2023/07/19 03:59:51;;;;;;;10.15;4.45;;;;;;;14.48;100.00;100940.41;5006571;28;20506;-71
2023/07/19 04:02:19;;;;;;;13.63;4.38;;;;;;;14.43;100.00;100930.56;5010474;28;20110;-72
2023/07/19 04:04:46;;;;;;;12.30;4.60;;;;;;;14.48;100.00;100937.63;5004927;28;20050;-72
2023/07/19 04:07:12;;;;;;;10.20;4.30;;;;;;;14.52;100.00;100941.13;5004058;28;20042;-73
2023/07/19 04:09:39;;;;;;;11.68;5.22;;;;;;;14.55;100.00;100948.66;5009214;28;20100;-70
2023/07/19 04:12:06;;;;;;;11.50;4.53;;;;;;;14.47;100.00;100950.84;5008472;28;20049;-73
2023/07/19 04:14:33;;;;;;;13.82;5.00;;;;;;;14.39;100.00;100949.41;5006247;28;20490;-73
2023/07/19 04:16:59;;;;;;;14.10;5.10;;;;;;;14.30;100.00;100945.66;4991066;28;20050;-71
2023/07/19 04:19:26;;;;;;;12.10;4.93;;;;;;;14.30;100.00;100942.88;5004816;28;20415;-72
2023/07/19 04:21:52;;;;;;;14.13;4.70;;;;;;;14.38;100.00;100939.44;4989920;28;20088;-72
2023/07/19 04:24:19;;;;;;;13.88;5.25;;;;;;;14.49;100.00;100934.38;5009893;28;20056;-71
2023/07/19 04:26:45;;;;;;;11.68;4.70;;;;;;;14.59;100.00;100933.31;4997726;28;20057;-71
2023/07/19 04:29:12;;;;;;;14.30;4.68;;;;;;;14.69;100.00;100937.84;4998321;28;20517;-77
2023/07/19 04:31:38;;;;;;;15.57;4.70;;;;;;;14.77;100.00;100946.84;5001851;28;20080;-73
2023/07/19 04:34:05;;;;;;;10.07;4.40;;;;;;;14.85;100.00;100945.44;4998749;28;20050;-75
2023/07/19 04:36:32;;;;;;;15.05;4.80;;;;;;;14.84;100.00;100941.06;5008389;28;20112;-72
2023/07/19 04:38:58;;;;;;;13.77;4.43;;;;;;;14.84;100.00;100932.66;5009797;28;20101;-72
2023/07/19 04:41:25;;;;;;;14.32;5.57;;;;;;;14.89;100.00;100938.50;4983894;28;20047;-73
2023/07/19 04:43:51;;;;;;;12.60;5.45;;;;;;;14.96;100.00;100931.94;5009018;28;20576;-75
2023/07/19 04:46:18;;;;;;;13.80;5.18;;;;;;;14.99;100.00;100920.63;5007901;28;20069;-74
2023/07/19 04:48:45;;;;;;;15.43;4.75;;;;;;;15.08;100.00;100922.78;5005880;28;20104;-73
2023/07/19 04:51:11;;;;;;;11.27;4.32;;;;;;;15.18;100.00;100915.31;4992109;28;20057;-75
2023/07/19 04:53:38;;;;;;;15.50;5.15;;;;;;;15.24;100.00;100925.53;5009563;28;20049;-74
2023/07/19 04:56:04;;;;;;;17.95;5.55;;;;;;;15.27;100.00;100924.66;5009457;28;20128;-73
2023/07/19 04:58:31;;;;;;;15.93;5.00;;;;;;;15.34;100.00;100932.84;5009231;28;20115;-73
2023/07/19 05:01:08;;;;;;;10.25;5.07;;;;;;;15.39;100.00;100929.50;5008226;28;20046;-71
2023/07/19 05:03:35;;;;;;;12.93;4.80;;;;;;;15.46;100.00;100931.31;4984607;28;20084;-73
2023/07/19 05:06:02;;;;;;;14.27;4.78;;;;;;;15.55;100.00;100925.81;5007459;28;20076;-73
2023/07/19 05:08:29;;;;;;;14.02;5.22;;;;;;;15.67;100.00;100930.69;5001765;28;20059;-69
2023/07/19 05:10:55;;;;;;;10.80;4.88;;;;;;;15.76;100.00;100933.59;5007234;28;20076;-75
2023/07/19 05:13:22;;;;;;;12.85;4.82;;;;;;;15.73;100.00;100923.28;4997417;28;20066;-76
2023/07/19 05:15:48;;;;;;;14.20;5.85;;;;;;;15.75;100.00;100918.00;5009323;28;20100;-76
2023/07/19 05:18:15;;;;;;;14.45;4.85;;;;;;;15.83;100.00;100928.53;5005897;28;20042;-72
2023/07/19 05:20:42;;;;;;;14.02;5.07;;;;;;;15.80;100.00;100925.88;5007118;28;20081;-73
2023/07/19 05:23:08;;;;;;;13.35;4.95;;;;;;;15.85;100.00;100922.50;5001104;28;20056;-72
2023/07/19 05:25:35;;;;;;;13.98;5.18;;;;;;;15.82;100.00;100914.97;5009218;28;20053;-70
2023/07/19 05:28:02;;;;;;;19.15;5.85;;;;;;;15.84;100.00;100921.72;5008371;28;20049;-72
2023/07/19 05:30:28;;;;;;;13.85;4.53;;;;;;;15.75;100.00;100916.00;5000786;28;20085;-73
2023/07/19 05:32:55;;;;;;;17.27;6.20;;;;;;;15.81;100.00;100919.81;5003822;28;20518;-74
2023/07/19 05:35:21;;;;;;;14.65;5.40;;;;;;;15.85;100.00;100931.69;5007290;28;20150;-73
2023/07/19 05:37:48;;;;;;;14.77;5.78;;;;;;;15.94;100.00;100923.41;5005500;28;20042;-74
2023/07/19 05:40:15;;;;;;;13.98;5.88;;;;;;;16.03;100.00;100922.72;5007933;28;20083;-75
2023/07/19 05:42:41;;;;;;;18.00;5.97;;;;;;;16.10;100.00;100926.06;5008853;28;20081;-74
2023/07/19 05:45:08;;;;;;;18.77;5.70;;;;;;;16.20;100.00;100926.97;5001662;28;20045;-73
2023/07/19 05:47:35;;;;;;;14.52;5.57;;;;;;;16.31;100.00;100930.22;5008430;28;20605;-73
2023/07/19 05:50:01;;;;;;;16.92;6.32;;;;;;;16.39;100.00;100925.94;5007670;28;20425;-74
2023/07/19 05:52:28;;;;;;;18.33;5.90;;;;;;;16.46;100.00;100932.09;5002923;28;20506;-73
2023/07/19 05:54:55;;;;;;;16.40;6.45;;;;;;;16.49;100.00;100933.22;4999307;28;20050;-74
2023/07/19 05:57:22;;;;;;;21.27;5.43;;;;;;;16.57;100.00;100940.94;4988110;28;20050;-74
2023/07/19 05:59:48;;;;;;;19.25;6.10;;;;;;;16.52;100.00;100938.72;5000263;28;20132;-73
2023/07/19 06:02:15;;;;;;;18.30;6.40;;;;;;;16.50;100.00;100929.97;5003399;28;20463;-73
2023/07/19 06:04:42;;;;;;;16.73;5.95;;;;;;;16.53;100.00;100929.06;5000527;28;20096;-73
2023/07/19 06:07:09;;;;;;;19.63;6.85;;;;;;;16.51;100.00;100925.91;4993846;28;20470;-71
2023/07/19 06:09:36;;;;;;;16.55;6.43;;;;;;;16.49;100.00;100931.19;5004829;28;20108;-74
2023/07/19 06:12:02;;;;;;;18.67;7.28;;;;;;;16.43;100.00;100933.00;5006973;28;20429;-73
2023/07/19 06:14:29;;;;;;;23.98;6.65;;;;;;;16.53;100.00;100934.66;5007283;28;20050;-74
2023/07/19 06:16:56;;;;;;;19.20;6.88;;;;;;;16.56;100.00;100935.78;5002249;28;20080;-72
2023/07/19 06:19:23;;;;;;;18.50;6.32;;;;;;;16.57;100.00;100938.13;4985869;28;20112;-73
2023/07/19 06:21:51;;;;;;;17.73;6.00;;;;;;;16.59;100.00;100937.69;5007449;28;20054;-73
2023/07/19 06:24:17;;;;;;;23.60;5.45;;;;;;;16.51;100.00;100934.31;5007207;28;20422;-73
2023/07/19 06:26:44;;;;;;;18.15;6.38;;;;;;;16.47;100.00;100930.84;5005480;28;20096;-74
2023/07/19 06:29:10;;;;;;;18.80;7.18;;;;;;;16.52;100.00;100926.69;5011161;28;20092;-73
2023/07/19 06:31:37;;;;;;;18.48;6.57;;;;;;;16.62;100.00;100928.34;5001871;28;20480;-72
2023/07/19 06:34:04;;;;;;;16.55;6.35;;;;;;;16.69;100.00;100926.09;5010308;28;20422;-72
2023/07/19 06:36:30;;;;;;;17.00;7.07;;;;;;;16.71;100.00;100934.81;5012039;28;20049;-73
2023/07/19 06:38:57;;;;;;;25.73;7.03;;;;;;;16.70;100.00;100935.28;5006864;28;20473;-74
2023/07/19 06:41:23;;;;;;;19.60;7.35;;;;;;;16.81;100.00;100933.66;5011077;28;20045;-72
2023/07/19 06:43:50;;;;;;;18.55;6.40;;;;;;;16.87;100.00;100934.66;5011527;28;20576;-72
2023/07/19 06:46:16;;;;;;;20.27;7.50;;;;;;;17.00;100.00;100931.78;5010748;28;20057;-70
2023/07/19 06:48:43;;;;;;;22.67;7.38;;;;;;;17.04;100.00;100930.44;5009855;28;20133;-76
2023/07/19 06:51:09;;;;;;;17.77;6.07;;;;;;;17.08;100.00;100941.56;4990221;28;20053;-71
2023/07/19 06:53:36;;;;;;;19.77;6.80;;;;;;;17.18;100.00;100934.75;5011272;28;20116;-72
2023/07/19 06:56:07;;;;;;;20.02;7.57;;;;;;;17.22;100.00;100941.06;5011368;28;20093;-74
2023/07/19 06:58:34;;;;;;;20.65;8.00;;;;;;;17.39;100.00;100945.22;5008805;28;20049;-72
2023/07/19 07:01:00;;;;;;;16.02;6.07;;;;;;;17.32;100.00;100940.66;5009590;28;20487;-71
2023/07/19 07:03:28;;;;;;;17.98;7.05;;;;;;;17.50;100.00;100942.00;5010361;28;20758;-71
2023/07/19 07:05:55;;;;;;;23.90;8.40;;;;;;;17.62;100.00;100943.94;5011521;28;20060;-70
2023/07/19 07:08:22;;;;;;;19.08;6.35;;;;;;;17.69;100.00;100943.69;4992297;28;20046;-71
2023/07/19 07:10:49;;;;;;;14.95;5.00;;;;;;;17.69;100.00;100946.50;5011442;28;20068;-73
2023/07/19 07:13:15;;;;;;;16.85;6.50;;;;;;;17.87;100.00;100947.34;5008876;28;20050;-73
2023/07/19 07:15:42;;;;;;;20.83;6.68;;;;;;;17.95;100.00;100948.66;5009613;28;20099;-74
2023/07/19 07:18:08;;;;;;;18.00;5.93;;;;;;;18.11;100.00;100942.78;5010738;28;20045;-73
2023/07/19 07:20:35;;;;;;;14.63;6.32;;;;;;;18.21;100.00;100944.41;5010564;28;20448;-73
2023/07/19 07:23:02;;;;;;;23.70;6.88;;;;;;;18.28;100.00;100957.38;4994121;28;20553;-74
2023/07/19 07:25:33;;;;;;;17.98;7.25;;;;;;;18.37;100.00;100957.41;5008447;28;20072;-73
2023/07/19 07:28:00;;;;;;;20.65;6.53;;;;;;;18.39;100.00;100957.75;5008874;28;20142;-74
2023/07/19 07:30:27;;;;;;;18.80;6.10;;;;;;;18.44;100.00;100955.09;5010800;28;20053;-74
2023/07/19 07:32:53;;;;;;;15.27;5.68;;;;;;;18.53;100.00;100962.78;5002585;28;20462;-74
2023/07/19 07:35:20;;;;;;;16.08;5.68;;;;;;;18.58;100.00;100962.94;5010317;28;20049;-73
2023/07/19 07:37:47;;;;;;;18.40;6.50;;;;;;;18.73;100.00;100960.34;5010728;28;20133;-73
2023/07/19 07:40:13;;;;;;;16.55;4.93;;;;;;;18.80;100.00;100957.97;5010753;28;20477;-72
2023/07/19 07:42:40;;;;;;;15.93;6.05;;;;;;;18.94;100.00;100956.59;5007835;28;20046;-72
2023/07/19 07:45:08;;;;;;;18.00;5.80;;;;;;;18.91;100.00;100954.72;4993377;28;20077;-75
2023/07/19 07:47:35;;;;;;;13.93;6.38;;;;;;;19.01;100.00;100959.09;4992649;28;20045;-75
2023/07/19 07:50:03;;;;;;;13.73;5.03;;;;;;;19.13;100.00;100958.91;5010232;28;20060;-74
2023/07/19 07:52:31;;;;;;;19.73;5.50;;;;;;;19.23;100.00;100954.06;4991475;28;20089;-72
2023/07/19 07:54:57;;;;;;;15.50;4.05;;;;;;;19.39;100.00;100960.16;5010380;28;20046;-73
2023/07/19 07:57:24;;;;;;;13.25;4.10;;;;;;;19.53;100.00;100945.44;5008991;28;20061;-73
2023/07/19 07:59:50;;;;;;;13.60;3.50;;;;;;;19.69;100.00;100952.75;5003969;28;20050;-71
2023/07/19 08:02:17;;;;;;;10.23;3.30;;;;;;;19.71;100.00;100944.56;5002577;28;20065;-73
2023/07/19 08:04:44;;;;;;;13.05;3.08;;;;;;;19.80;100.00;100944.56;5004114;28;20045;-70
2023/07/19 08:07:10;;;;;;;8.63;3.33;;;;;;;19.96;100.00;100949.84;5010240;28;20077;-74
2023/07/19 08:09:37;;;;;;;10.15;3.25;;;;;;;19.96;100.00;100949.84;5009606;28;20049;-71
2023/07/19 08:12:04;;;;;;;14.35;3.42;;;;;;;20.16;100.00;100947.22;4996151;28;20049;-73
2023/07/19 08:14:30;;;;;;;12.05;3.70;;;;;;;20.24;100.00;100945.66;5008642;28;20565;-73
2023/07/19 08:16:57;;;;;;;11.07;2.75;;;;;;;20.28;100.00;100937.00;5003071;28;20042;-74
2023/07/19 08:19:28;;;;;;;13.02;3.20;;;;;;;20.43;100.00;100941.47;5009133;28;20188;-72
2023/07/19 08:22:03;;;;;;;10.40;3.22;;;;;;;20.45;100.00;100947.41;5007872;28;20718;-70
2023/07/19 08:24:30;;;;;;;9.13;2.83;;;;;;;20.40;100.00;100950.09;5004749;28;20054;-73
2023/07/19 08:26:58;;;;;;;10.95;3.17;;;;;;;20.41;100.00;100946.00;5006638;28;20050;-72
2023/07/19 08:29:26;;;;;;;10.63;3.15;;;;;;;20.53;100.00;100942.97;5008096;28;20050;-73
2023/07/19 08:31:53;;;;;;;9.35;2.97;;;;;;;20.61;100.00;100938.50;5007520;28;20072;-73
2023/07/19 08:34:20;;;;;;;7.50;2.78;;;;;;;20.77;100.00;100938.09;5009619;28;20060;-75
2023/07/19 08:36:47;;;;;;;14.15;2.90;;;;;;;20.89;100.00;100928.56;5006212;28;20077;-74
2023/07/19 08:39:14;;;;;;;9.57;3.72;;;;;;;21.04;100.00;100929.41;5008664;28;20101;-75
2023/07/19 08:41:42;;;;;;;8.93;2.30;;;;;;;21.30;100.00;100926.81;5009685;28;20060;-74
2023/07/19 08:44:10;;;;;;;7.22;2.40;;;;;;;21.24;100.00;100923.88;5009533;28;20088;-73
2023/07/19 08:46:37;;;;;;;8.65;2.92;;;;;;;21.31;100.00;100931.19;5004049;28;20050;-75
2023/07/19 08:49:03;;;;;;;9.52;2.53;;;;;;;21.15;100.00;100915.47;5005709;28;20041;-72
2023/07/19 08:51:32;;;;;;;3.22;1.30;;;;;;;20.90;100.00;100920.88;5007633;28;20057;-74
2023/07/19 08:54:01;;;;;;;10.13;3.17;;;;;;;21.19;100.00;100912.44;5007264;28;20042;-73
2023/07/19 08:56:30;;;;;;;8.65;2.50;;;;;;;20.99;100.00;100915.94;4989152;28;20049;-72
2023/07/19 08:58:57;;;;;;;8.65;2.55;;;;;;;21.08;100.00;100920.72;5004711;28;20050;-74
2023/07/19 09:01:23;;;;;;;9.35;2.53;;;;;;;21.18;100.00;100925.81;5008178;28;20121;-73
2023/07/19 09:03:51;;;;;;;10.98;3.78;;;;;;;21.25;100.00;100916.16;4997847;28;20062;-73
2023/07/19 09:06:25;;;;;;;9.30;2.97;;;;;;;21.34;100.00;100914.06;5005913;28;20042;-75
2023/07/19 09:08:52;;;;;;;10.15;2.65;;;;;;;21.47;100.00;100911.69;5000671;28;20569;-74
2023/07/19 09:11:21;;;;;;;11.82;3.90;;;;;;;21.40;100.00;100912.06;4991845;28;20045;-75
2023/07/19 09:13:53;;;;;;;6.63;2.60;;;;;;;21.58;100.00;100911.09;5009281;28;20115;-74
2023/07/19 09:16:26;;;;;;;9.35;2.88;;;;;;;21.76;100.00;100911.69;5007017;28;20052;-74
2023/07/19 09:18:56;;;;;;;10.02;3.00;;;;;;;21.77;100.00;100909.66;4997759;28;20042;-74
2023/07/19 09:21:34;;;;;;;7.78;2.45;;;;;;;21.70;100.00;100910.03;5005445;28;20051;-72
2023/07/19 09:24:05;;;;;;;10.43;3.03;;;;;;;21.71;100.00;100909.53;4991733;28;20057;-72
2023/07/19 09:26:48;;;;;;;11.32;3.15;;;;;;;21.82;100.00;100920.28;5006971;28;20082;-72
2023/07/19 09:29:15;;;;;;;13.43;3.53;;;;;;;21.98;100.00;100912.03;4984937;28;20046;-72
2023/07/19 09:31:57;;;;;;;8.52;2.63;;;;;;;22.10;100.00;100916.59;5008570;28;20096;-74
2023/07/19 09:34:28;;;;;;;6.97;2.60;;;;;;;22.24;100.00;100925.56;5002089;28;20041;-73
2023/07/19 09:36:55;;;;;;;12.07;3.30;;;;;;;22.14;100.00;100907.88;5003752;28;20461;-73
2023/07/19 09:39:24;;;;;;;8.48;2.47;;;;;;;22.13;100.00;100912.00;5005165;28;20089;-74
2023/07/19 09:41:51;;;;;;;11.10;2.72;;;;;;;22.10;100.00;100904.50;5008584;28;20045;-72
2023/07/19 09:44:18;;;;;;;31.75;4.60;;;;;;;22.30;100.00;100900.94;4998322;28;20059;-74
2023/07/19 09:46:45;;;;;;;10.23;2.60;;;;;;;22.45;100.00;100899.63;4996141;28;20153;-72
2023/07/19 09:49:13;;;;;;;8.35;3.17;;;;;;;22.57;100.00;100898.47;5005567;28;20081;-71
2023/07/19 09:51:41;;;;;;;16.35;3.50;;;;;;;22.75;100.00;100908.75;5005676;28;20513;-73
2023/07/19 09:54:10;;;;;;;9.00;3.35;;;;;;;22.69;100.00;100905.84;5007636;28;20495;-72
2023/07/19 09:56:38;;;;;;;9.60;3.10;;;;;;;22.49;100.00;100894.50;5004985;28;20810;-73
2023/07/19 09:59:10;;;;;;;12.25;3.40;;;;;;;22.84;100.00;100900.06;5004636;28;20043;-73
2023/07/19 10:01:37;;;;;;;12.15;3.20;;;;;;;22.68;100.00;100895.00;5005287;28;20138;-73
2023/07/19 10:04:28;;;;;;;10.95;3.33;;;;;;;22.99;100.00;100895.13;5004683;28;20060;-72
2023/07/19 10:07:04;;;;;;;9.93;3.03;;;;;;;23.10;100.00;100898.09;5006998;28;20766;-72
2023/07/19 10:09:39;;;;;;;9.48;3.30;;;;;;;22.87;100.00;100896.25;5003025;28;20107;-73
2023/07/19 10:12:07;;;;;;;;;;;;;;;22.85;100.00;100898.81;5008742;28;20074;-73
2023/07/19 10:14:35;;;;;;;6.55;2.42;;;;;;;22.52;100.00;100889.91;5004895;28;19976;-74
2023/07/19 10:17:06;;;;;;;11.10;3.15;;;;;;;22.33;100.00;100894.28;5002552;28;20077;-72
2023/07/19 10:19:32;;;;;;;13.27;3.92;;;;;;;22.64;100.00;100886.72;5000420;28;20056;-75
2023/07/19 10:22:07;;;;;;;15.18;3.53;;;;;;;22.83;100.00;100887.19;5004349;28;20534;-73
2023/07/19 10:24:37;;;;;;;13.87;3.70;;;;;;;22.74;100.00;100893.03;5004749;28;20101;-68
2023/07/19 10:27:06;;;;;;;9.82;3.83;;;;;;;22.81;100.00;100887.69;5005802;28;20133;-74
2023/07/19 10:29:44;;;;;;;11.25;3.33;;;;;;;22.79;100.00;100895.13;5003553;28;20054;-72
2023/07/19 10:32:11;;;;;;;11.40;3.55;;;;;;;22.65;100.00;100893.97;4983151;28;20053;-73
2023/07/19 10:34:38;;;;;;;12.68;3.22;;;;;;;22.54;100.00;100888.13;5003928;28;20587;-74
2023/07/19 10:37:10;;;;;;;14.18;4.03;;;;;;;22.60;100.00;100885.38;5002055;28;20049;-73
2023/07/19 10:39:37;;;;;;;10.10;3.63;;;;;;;22.63;100.00;100878.69;5001510;28;20054;-72
2023/07/19 10:42:04;;;;;;;9.02;3.17;;;;;;;22.75;100.00;100886.06;5003295;28;20100;-73
2023/07/19 10:44:31;;;;;;;9.80;3.75;;;;;;;22.97;100.00;100872.94;4993264;28;20080;-73
2023/07/19 10:47:06;;;;;;;2.63;1.52;;;;;;;22.88;100.00;100883.66;5003782;28;20100;-73
2023/07/19 10:49:33;;;;;;;6.72;2.47;;;;;;;22.95;100.00;100883.97;5003800;28;20049;-70
2023/07/19 10:52:00;;;;;;;6.53;2.47;;;;;;;23.19;100.00;100876.00;5001382;28;20057;-72
2023/07/19 10:54:28;;;;;;;13.48;3.38;;;;;;;23.28;100.00;100875.03;5004940;28;20085;-72
2023/07/19 10:57:08;;;;;;;8.85;1.95;;;;;;;22.72;100.00;100870.06;4998755;28;20780;-72
2023/07/19 10:59:35;;;;;;;9.30;3.20;;;;;;;23.19;100.00;100878.06;4999648;28;20054;-71
2023/07/19 11:02:01;;;;;;;10.57;2.92;;;;;;;23.19;100.00;100870.31;4997990;28;20099;-71
2023/07/19 11:04:29;;;;;;;11.98;3.50;;;;;;;23.70;100.00;100863.84;5005618;28;20422;-71
2023/07/19 11:06:59;;;;;;;12.05;3.20;;;;;;;23.86;100.00;100866.03;4988366;28;20057;-70
2023/07/19 11:09:29;;;;;;;10.40;3.78;;;;;;;23.75;100.00;100865.94;4999711;28;20112;-70
2023/07/19 11:11:56;;;;;;;7.75;2.38;;;;;;;23.45;100.00;100867.47;4990478;28;20049;-72
2023/07/19 11:14:33;;;;;;;12.25;3.45;;;;;;;23.71;100.00;100865.38;5005016;28;20073;-71
2023/07/19 11:17:00;;;;;;;12.30;2.97;;;;;;;23.82;100.00;100854.09;5004382;28;20049;-70